Terminal Aerodrome Forecast
Issued by NWS

Home | Current Version | Previous Version | Text Only | Print | Product List | Glossary On
Versions: 1 2 3 4 5 6 7 8 9 10 11 12 13 14 15 16 17 18
000
FTUS44 KLZK 171730
TAFADF
TAF
KADF 171730Z 1718/1818 VRB04KT P6SM SKC
     FM172330 VRB02KT P6SM SKC
      TEMPO 1810/1813 2SM BR
     FM181500 14004KT P6SM SKC=

USA.gov is the U.S. government's official web portal to all federal, state and local government web resources and services.